Time;durP1;ratioP1;P1;durP2;ratioP2;P2;SDS_P1;SDS_P2;PMS_P1;PMS_P2;Temp;Humidity;BMP_temperature;BMP_pressure;BME280_temperature;BME280_humidity;BME280_pressure;Samples;Min_cycle;Max_cycle;Signal;HPM_P1;HPM_P2
2022/09/24 00:01:37;;;;;;;63.38;46.13;;;12.90;99.90;;;;;;7400747;19;20531;-85
2022/09/24 00:04:09;;;;;;;61.10;47.88;;;12.90;99.90;;;;;;7400230;19;20720;-85
2022/09/24 00:06:46;;;;;;;62.13;48.13;;;12.90;99.90;;;;;;7398659;19;20015;-84
2022/09/24 00:09:20;;;;;;;59.72;47.13;;;12.90;99.90;;;;;;7398521;19;20022;-83
2022/09/24 00:11:48;;;;;;;53.15;45.30;;;12.90;99.90;;;;;;7401313;19;20070;-84
2022/09/24 00:14:15;;;;;;;60.40;46.88;;;13.00;99.90;;;;;;7399131;19;20019;-84
2022/09/24 00:16:43;;;;;;;52.33;44.10;;;13.00;99.90;;;;;;7397904;19;20006;-84
2022/09/24 00:19:11;;;;;;;44.33;36.78;;;13.00;99.90;;;;;;7397072;19;20019;-84
2022/09/24 00:21:37;;;;;;;51.40;42.85;;;13.00;99.90;;;;;;7400727;19;20050;-84
2022/09/24 00:24:06;;;;;;;60.25;48.13;;;13.00;99.90;;;;;;7396179;19;20010;-84
2022/09/24 00:26:50;;;;;;;58.40;46.50;;;13.00;99.90;;;;;;7398432;19;20010;-83
2022/09/24 00:29:22;;;;;;;55.88;44.00;;;13.00;99.90;;;;;;7397475;19;20010;-83
2022/09/24 00:31:50;;;;;;;63.65;50.22;;;13.00;99.90;;;;;;7395735;19;20011;-84
2022/09/24 00:34:17;;;;;;;63.40;49.15;;;13.00;99.90;;;;;;7397292;19;20014;-84
2022/09/24 00:36:46;;;;;;;65.88;49.92;;;13.00;99.90;;;;;;7397522;19;20018;-84
2022/09/24 00:39:12;;;;;;;67.65;50.72;;;13.00;99.90;;;;;;7396150;19;20019;-84
2022/09/24 00:41:40;;;;;;;64.35;49.92;;;13.00;99.90;;;;;;7396714;19;20060;-84
2022/09/24 00:44:43;;;;;;;73.97;53.97;;;13.00;99.90;;;;;;7397946;19;20017;-85
2022/09/24 00:47:18;;;;;;;;;;;13.00;99.90;;;;;;7397044;19;20454;-85
2022/09/24 00:49:47;;;;;;;70.22;51.38;;;13.00;99.90;;;;;;7397931;19;19930;-84
2022/09/24 00:52:14;;;;;;;76.45;56.05;;;13.00;99.90;;;;;;7399858;19;20029;-84
2022/09/24 00:54:42;;;;;;;63.13;49.50;;;13.00;99.90;;;;;;7400113;19;20094;-85
2022/09/24 00:57:08;;;;;;;70.60;53.90;;;13.00;99.90;;;;;;7400396;19;20487;-85
2022/09/24 00:59:34;;;;;;;71.05;53.25;;;13.00;99.90;;;;;;7396293;19;20021;-84
2022/09/24 01:02:04;;;;;;;60.45;48.40;;;13.10;99.90;;;;;;7396088;19;20010;-85
2022/09/24 01:04:29;;;;;;;62.97;49.97;;;13.10;99.90;;;;;;7397182;19;20006;-85
2022/09/24 01:06:56;;;;;;;71.25;54.70;;;13.10;99.90;;;;;;7398350;19;20107;-85
2022/09/24 01:09:25;;;;;;;71.78;56.47;;;13.10;99.90;;;;;;7397978;19;20019;-85
2022/09/24 01:11:57;;;;;;;64.90;50.78;;;13.10;99.90;;;;;;7396267;19;20006;-84
2022/09/24 01:14:38;;;;;;;72.82;54.97;;;13.20;99.90;;;;;;7399500;19;20027;-85
2022/09/24 01:17:16;;;;;;;75.70;56.35;;;13.20;99.90;;;;;;7396612;19;20025;-85
2022/09/24 01:19:47;;;;;;;75.05;57.45;;;13.20;99.90;;;;;;7396601;19;20424;-86
2022/09/24 01:22:24;;;;;;;88.07;62.53;;;13.20;99.90;;;;;;7397885;19;20014;-86
2022/09/24 01:25:04;;;;;;;80.18;60.20;;;13.20;99.90;;;;;;7397993;19;20495;-86
2022/09/24 01:27:45;;;;;;;71.82;51.72;;;13.20;99.90;;;;;;7395073;19;20042;-86
2022/09/24 01:30:13;;;;;;;83.88;59.28;;;13.20;99.90;;;;;;7399998;19;20109;-86
2022/09/24 01:32:55;;;;;;;84.85;61.38;;;13.20;99.90;;;;;;7393986;19;20014;-86
2022/09/24 01:35:27;;;;;;;83.28;63.65;;;13.20;99.90;;;;;;7400207;19;20022;-85
2022/09/24 01:38:01;;;;;;;81.30;61.05;;;13.20;99.90;;;;;;7395123;19;20099;-86
2022/09/24 01:40:29;;;;;;;83.55;61.40;;;13.20;99.90;;;;;;7398978;19;20976;-85
2022/09/24 01:42:58;;;;;;;79.07;59.65;;;13.30;99.90;;;;;;7396097;19;20456;-85
2022/09/24 01:45:30;;;;;;;74.15;56.67;;;13.20;99.90;;;;;;7219422;19;20031;-86
2022/09/24 01:48:01;;;;;;;75.47;59.87;;;13.30;99.90;;;;;;7393690;19;20014;-84
2022/09/24 01:50:32;;;;;;;88.32;64.32;;;13.30;99.90;;;;;;7396001;19;20538;-84
2022/09/24 01:53:03;;;;;;;95.95;69.00;;;13.30;99.90;;;;;;7397632;19;20158;-84
2022/09/24 01:55:37;;;;;;;85.15;62.15;;;13.30;99.90;;;;;;7391882;19;20017;-87
2022/09/24 01:58:12;;;;;;;87.30;63.90;;;13.30;99.90;;;;;;7395812;19;20011;-89
2022/09/24 02:00:44;;;;;;;90.43;65.13;;;13.30;99.90;;;;;;7393861;19;20040;-88
2022/09/24 02:03:16;;;;;;;72.85;57.83;;;13.30;99.90;;;;;;7400239;19;20025;-86
2022/09/24 02:05:56;;;;;;;100.57;68.75;;;13.30;99.90;;;;;;7398306;19;20038;-88
2022/09/24 02:08:28;;;;;;;95.28;67.45;;;13.30;99.90;;;;;;7399104;19;20464;-89
2022/09/24 02:11:11;;;;;;;71.85;54.90;;;13.30;99.90;;;;;;7396408;19;20474;-90
2022/09/24 02:13:55;;;;;;;82.45;60.75;;;13.30;99.90;;;;;;7394747;19;20086;-88
2022/09/24 02:16:29;;;;;;;76.07;56.35;;;13.40;99.90;;;;;;7396364;19;20017;-88
2022/09/24 02:19:01;;;;;;;98.25;68.95;;;13.40;99.90;;;;;;7393540;19;20045;-89
2022/09/24 02:21:31;;;;;;;70.82;55.40;;;13.40;99.90;;;;;;7392572;19;20015;-88
2022/09/24 02:24:05;;;;;;;59.58;49.65;;;13.40;99.90;;;;;;7396009;19;20027;-89
2022/09/24 02:26:32;;;;;;;67.95;53.45;;;13.40;99.90;;;;;;7395198;19;20039;-88
2022/09/24 02:28:59;;;;;;;105.13;72.80;;;13.40;99.90;;;;;;7397672;19;20003;-88
2022/09/24 02:31:32;;;;;;;94.30;68.95;;;13.40;99.90;;;;;;7393826;19;20113;-87
2022/09/24 02:34:22;;;;;;;103.68;72.95;;;13.40;99.90;;;;;;7396364;19;20014;-88
2022/09/24 02:36:59;;;;;;;113.15;76.03;;;13.40;99.90;;;;;;7393402;19;20025;-86
2022/09/24 02:39:27;;;;;;;96.97;69.60;;;13.40;99.90;;;;;;7389788;19;20021;-88
2022/09/24 02:41:56;;;;;;;120.43;78.47;;;13.40;99.90;;;;;;7396852;19;20022;-88
2022/09/24 02:44:30;;;;;;;118.85;78.13;;;13.40;99.90;;;;;;7398287;19;20023;-87
2022/09/24 02:46:56;;;;;;;127.15;78.70;;;13.40;99.90;;;;;;7393726;19;20072;-88
2022/09/24 02:49:22;;;;;;;106.03;73.30;;;13.40;99.90;;;;;;7394217;19;20018;-88
2022/09/24 02:51:49;;;;;;;136.30;83.57;;;13.40;99.90;;;;;;7395703;19;20035;-87
2022/09/24 02:54:15;;;;;;;112.90;76.93;;;13.40;99.90;;;;;;7391535;19;20018;-89
2022/09/24 02:56:41;;;;;;;123.15;81.65;;;13.40;99.90;;;;;;7394007;19;20082;-88
2022/09/24 02:59:08;;;;;;;118.10;78.80;;;13.30;99.90;;;;;;7397768;19;20552;-88
2022/09/24 03:01:36;;;;;;;135.43;82.82;;;13.30;99.90;;;;;;7399021;19;20061;-88
2022/09/24 03:04:05;;;;;;;130.52;84.25;;;13.30;99.90;;;;;;7395722;19;20018;-88
2022/09/24 03:06:37;;;;;;;;;;;13.30;99.90;;;;;;7396225;19;20055;-89
2022/09/24 03:09:03;;;;;;;117.82;79.93;;;13.30;99.90;;;;;;7392858;19;19924;-88
2022/09/24 03:11:34;;;;;;;105.93;76.05;;;13.40;99.90;;;;;;7395565;19;20115;-88
2022/09/24 03:14:01;;;;;;;118.28;76.47;;;13.40;99.90;;;;;;7394196;19;20050;-88
2022/09/24 03:16:28;;;;;;;103.07;72.18;;;13.40;99.90;;;;;;7392964;19;20458;-88
2022/09/24 03:18:58;;;;;;;83.38;62.22;;;13.40;99.90;;;;;;7394777;19;20014;-88
2022/09/24 03:21:30;;;;;;;128.45;78.82;;;13.50;99.90;;;;;;7400305;19;20035;-88
2022/09/24 03:23:56;;;;;;;108.38;73.20;;;13.50;99.90;;;;;;7399241;19;20022;-87
2022/09/24 03:26:26;;;;;;;108.60;76.05;;;13.50;99.90;;;;;;7397626;19;20018;-88
2022/09/24 03:28:57;;;;;;;104.43;70.90;;;13.50;99.90;;;;;;7402269;19;20030;-87
2022/09/24 03:31:29;;;;;;;73.57;58.30;;;13.50;99.90;;;;;;7400260;19;20014;-88
2022/09/24 03:34:03;;;;;;;125.80;78.53;;;13.50;99.90;;;;;;7400753;19;20522;-87
2022/09/24 03:36:41;;;;;;;109.10;75.03;;;13.50;99.90;;;;;;7391966;19;20014;-87
2022/09/24 03:39:08;;;;;;;124.60;77.53;;;13.50;99.90;;;;;;7397199;19;20042;-87
2022/09/24 03:41:34;;;;;;;120.70;78.07;;;13.50;99.90;;;;;;7405492;19;20022;-88
2022/09/24 03:44:04;;;;;;;100.05;70.47;;;13.50;99.90;;;;;;7403073;19;20014;-89
2022/09/24 03:46:33;;;;;;;121.80;78.03;;;13.50;99.90;;;;;;7405213;19;20025;-86
2022/09/24 03:48:59;;;;;;;116.22;77.00;;;13.50;99.90;;;;;;7405992;19;20078;-89
2022/09/24 03:51:26;;;;;;;50.50;42.35;;;13.50;99.90;;;;;;7404934;19;20010;-86
2022/09/24 03:53:54;;;;;;;91.65;68.22;;;13.50;99.90;;;;;;7403519;19;20011;-86
2022/09/24 03:56:20;;;;;;;100.32;69.63;;;13.50;99.90;;;;;;7403774;19;20018;-86
2022/09/24 03:58:47;;;;;;;119.60;77.32;;;13.60;99.90;;;;;;7405107;19;20015;-87
2022/09/24 04:01:19;;;;;;;80.47;59.25;;;13.60;99.90;;;;;;7403751;19;20490;-87
2022/09/24 04:03:48;;;;;;;73.38;55.67;;;13.50;99.90;;;;;;7406140;19;20031;-87
2022/09/24 04:06:15;;;;;;;109.80;75.93;;;13.50;99.90;;;;;;7404230;19;20487;-87
2022/09/24 04:08:43;;;;;;;93.50;63.65;;;13.50;99.90;;;;;;7403064;19;20007;-87
2022/09/24 04:11:09;;;;;;;91.15;66.20;;;13.50;99.90;;;;;;7397725;19;20039;-87
2022/09/24 04:13:35;;;;;;;107.53;71.63;;;13.50;99.90;;;;;;7403951;19;20539;-89
2022/09/24 04:16:02;;;;;;;116.53;76.00;;;13.50;99.90;;;;;;7404020;19;20011;-87
2022/09/24 04:18:29;;;;;;;95.05;63.15;;;13.40;99.90;;;;;;7402906;19;20024;-88
2022/09/24 04:21:00;;;;;;;131.55;77.88;;;13.40;99.90;;;;;;7404894;19;20027;-88
2022/09/24 04:23:27;;;;;;;99.13;71.13;;;13.50;99.90;;;;;;7400861;19;20007;-87
2022/09/24 04:25:53;;;;;;;109.07;73.47;;;13.50;99.90;;;;;;7401670;19;20014;-87
2022/09/24 04:28:19;;;;;;;76.35;58.83;;;13.50;99.90;;;;;;7405918;19;20028;-86
2022/09/24 04:30:44;;;;;;;106.80;72.45;;;13.50;99.90;;;;;;7403049;19;20074;-87
2022/09/24 04:33:10;;;;;;;96.32;63.67;;;13.50;99.90;;;;;;7402057;19;20040;-86
2022/09/24 04:35:42;;;;;;;69.25;54.25;;;13.50;99.90;;;;;;7400322;19;20019;-87
2022/09/24 04:38:10;;;;;;;106.15;72.25;;;13.50;99.90;;;;;;7398732;19;20011;-87
2022/09/24 04:40:37;;;;;;;64.93;51.45;;;13.50;99.90;;;;;;7402438;19;20043;-87
2022/09/24 04:43:04;;;;;;;118.88;75.30;;;13.50;99.90;;;;;;7403000;19;20018;-87
2022/09/24 04:45:32;;;;;;;130.80;77.18;;;13.50;99.90;;;;;;7399217;19;20081;-87
2022/09/24 04:47:58;;;;;;;96.05;67.60;;;13.50;99.90;;;;;;7399933;19;20010;-89
2022/09/24 04:50:25;;;;;;;129.68;78.43;;;13.50;99.90;;;;;;7402159;19;20030;-88
2022/09/24 04:52:51;;;;;;;127.93;77.82;;;13.50;99.90;;;;;;7403477;19;20015;-89
2022/09/24 04:55:19;;;;;;;157.10;82.05;;;13.50;99.90;;;;;;7402301;19;20389;-89
2022/09/24 04:57:45;;;;;;;92.65;65.15;;;13.50;99.90;;;;;;7398884;19;20014;-89
2022/09/24 05:00:16;;;;;;;71.90;55.75;;;13.40;99.90;;;;;;7399179;19;20011;-87
2022/09/24 05:02:44;;;;;;;77.20;57.20;;;13.40;99.90;;;;;;7400595;19;20053;-87
2022/09/24 05:05:13;;;;;;;99.82;66.43;;;13.40;99.90;;;;;;7400167;19;20022;-89
2022/09/24 05:07:43;;;;;;;82.32;61.03;;;13.50;99.90;;;;;;7402047;19;20085;-89
2022/09/24 05:10:12;;;;;;;110.43;71.65;;;13.50;99.90;;;;;;7397993;19;20090;-89
2022/09/24 05:12:40;;;;;;;97.97;68.35;;;13.50;99.90;;;;;;7400683;19;20014;-90
2022/09/24 05:15:11;;;;;;;156.43;82.90;;;13.50;99.90;;;;;;7399938;19;20566;-87
2022/09/24 05:17:42;;;;;;;219.52;89.05;;;13.40;99.90;;;;;;7401503;19;20440;-86
2022/09/24 05:20:14;;;;;;;105.45;70.32;;;13.40;99.90;;;;;;7399597;19;20017;-86
2022/09/24 05:22:44;;;;;;;136.98;77.43;;;13.40;99.90;;;;;;7400122;19;20356;-86
2022/09/24 05:25:16;;;;;;;125.03;76.90;;;13.40;99.90;;;;;;7399013;19;20058;-86
2022/09/24 05:27:44;;;;;;;124.30;78.15;;;13.40;99.90;;;;;;7400503;19;20014;-87
2022/09/24 05:30:11;;;;;;;99.43;66.50;;;13.40;99.90;;;;;;7400005;19;20075;-84
2022/09/24 05:32:39;;;;;;;102.85;69.57;;;13.40;99.90;;;;;;7396742;19;20052;-85
2022/09/24 05:35:08;;;;;;;132.00;77.43;;;13.40;99.90;;;;;;7395716;19;20022;-85
2022/09/24 05:37:37;;;;;;;151.20;82.30;;;13.40;99.90;;;;;;7398582;19;20018;-85
2022/09/24 05:42:50;;;;;;;126.07;77.55;;;13.40;99.90;;;;;;7395333;19;20420;-86
2022/09/24 05:45:17;;;;;;;148.57;81.95;;;13.40;99.90;;;;;;7396260;19;20468;-85
2022/09/24 05:47:45;;;;;;;160.77;82.70;;;13.40;99.90;;;;;;7394063;19;20014;-85
2022/09/24 05:50:12;;;;;;;92.65;63.85;;;13.40;99.90;;;;;;7394384;19;20039;-86
2022/09/24 05:52:39;;;;;;;54.20;44.55;;;13.40;99.90;;;;;;7394860;19;20036;-86
2022/09/24 05:55:06;;;;;;;107.75;71.57;;;13.40;99.90;;;;;;7393984;19;20019;-85
2022/09/24 05:57:33;;;;;;;139.25;79.90;;;13.40;99.90;;;;;;7393681;19;20014;-85
2022/09/24 05:59:59;;;;;;;124.43;75.22;;;13.40;99.90;;;;;;7392409;19;20081;-85
2022/09/24 06:02:25;;;;;;;144.40;82.18;;;13.40;99.90;;;;;;7394607;19;20022;-85
2022/09/24 06:04:51;;;;;;;96.07;68.15;;;13.40;99.90;;;;;;7395069;19;20108;-85
2022/09/24 06:07:17;;;;;;;134.55;77.15;;;13.40;99.90;;;;;;7393491;19;20397;-85
2022/09/24 06:09:43;;;;;;;130.40;78.85;;;13.40;99.90;;;;;;7388116;19;20341;-85
2022/09/24 06:12:09;;;;;;;91.88;64.03;;;13.40;99.90;;;;;;7394741;19;20097;-85
2022/09/24 06:14:36;;;;;;;133.95;78.28;;;13.40;99.90;;;;;;7391212;19;20011;-86
2022/09/24 06:17:01;;;;;;;113.75;70.30;;;13.40;99.90;;;;;;7393752;19;20014;-85
2022/09/24 06:19:28;;;;;;;129.45;75.50;;;13.50;99.90;;;;;;7387901;19;20025;-85
2022/09/24 06:21:56;;;;;;;118.15;72.35;;;13.50;99.90;;;;;;7387717;19;20023;-84
2022/09/24 06:24:22;;;;;;;103.15;64.55;;;13.50;99.90;;;;;;7396784;19;20024;-86
2022/09/24 06:26:50;;;;;;;119.20;71.15;;;13.50;99.90;;;;;;7399436;19;20038;-85
2022/09/24 06:29:18;;;;;;;128.27;72.05;;;13.60;99.90;;;;;;7396578;19;20518;-86
2022/09/24 06:31:44;;;;;;;104.38;68.13;;;13.50;99.90;;;;;;7394415;19;20018;-85
2022/09/24 06:34:10;;;;;;;114.30;68.80;;;13.60;99.90;;;;;;7394438;19;20612;-85
2022/09/24 06:36:36;;;;;;;98.05;62.15;;;13.60;99.90;;;;;;7394618;19;20010;-84
2022/09/24 06:39:03;;;;;;;109.45;65.90;;;13.60;99.90;;;;;;7392357;19;20023;-84
2022/09/24 06:41:31;;;;;;;105.75;62.67;;;13.60;99.90;;;;;;7396047;19;20532;-85
2022/09/24 06:43:58;;;;;;;92.55;58.42;;;13.70;99.90;;;;;;7392895;19;20018;-85
2022/09/24 06:46:24;;;;;;;116.55;62.58;;;13.70;99.90;;;;;;7393788;19;20010;-85
2022/09/24 06:48:52;;;;;;;46.63;35.85;;;13.70;99.90;;;;;;7391721;19;20417;-86
2022/09/24 06:51:18;;;;;;;62.58;46.30;;;13.70;99.90;;;;;;7395070;19;20080;-86
2022/09/24 06:53:45;;;;;;;95.22;54.88;;;13.80;99.90;;;;;;7392399;19;20011;-86
2022/09/24 06:56:13;;;;;;;46.42;34.97;;;13.80;99.90;;;;;;7395956;19;20011;-86
2022/09/24 06:58:43;;;;;;;65.10;47.50;;;13.90;99.90;;;;;;7393443;19;20018;-85
2022/09/24 07:01:12;;;;;;;72.93;48.03;;;13.90;99.90;;;;;;7400012;19;20101;-85
2022/09/24 07:03:39;;;;;;;97.95;60.15;;;14.00;99.90;;;;;;7402450;19;20018;-86
2022/09/24 07:06:05;;;;;;;98.53;58.53;;;14.00;99.90;;;;;;7402326;19;20029;-86
2022/09/24 07:08:32;;;;;;;61.55;42.25;;;14.10;99.90;;;;;;7401159;19;20479;-85
2022/09/24 07:10:59;;;;;;;56.55;40.83;;;14.00;99.90;;;;;;7404779;19;20022;-90
2022/09/24 07:13:36;;;;;;;66.40;47.65;;;14.10;99.90;;;;;;7406652;19;20082;-87
2022/09/24 07:16:06;;;;;;;77.07;49.45;;;14.30;99.90;;;;;;7407140;19;20480;-87
2022/09/24 07:18:34;;;;;;;40.70;27.58;;;14.40;99.90;;;;;;7403938;19;20010;-86
2022/09/24 07:21:02;;;;;;;39.25;26.55;;;14.50;99.90;;;;;;7405149;19;20452;-87
2022/09/24 07:23:34;;;;;;;32.80;17.63;;;14.70;99.90;;;;;;7401063;19;20018;-87
2022/09/24 07:26:03;;;;;;;29.75;16.67;;;14.70;99.90;;;;;;7406910;19;20084;-87
2022/09/24 07:28:31;;;;;;;14.13;7.65;;;14.70;99.90;;;;;;7398668;19;20010;-87
2022/09/24 07:30:59;;;;;;;14.65;7.35;;;14.70;99.90;;;;;;7406234;19;20023;-87
2022/09/24 07:33:26;;;;;;;15.70;6.22;;;14.80;99.90;;;;;;7406205;19;20014;-87
2022/09/24 07:35:53;;;;;;;11.80;4.40;;;14.80;99.90;;;;;;7404941;19;20014;-88
2022/09/24 07:38:21;;;;;;;18.38;4.03;;;14.90;99.90;;;;;;7400249;19;20013;-86
2022/09/24 07:40:49;;;;;;;15.40;3.53;;;14.90;99.90;;;;;;7398223;19;20011;-87
2022/09/24 07:43:16;;;;;;;15.52;3.33;;;14.90;99.90;;;;;;7401393;19;20040;-87
2022/09/24 07:45:42;;;;;;;9.73;2.80;;;14.80;99.90;;;;;;7401278;19;20022;-84
2022/09/24 07:48:11;;;;;;;16.48;2.35;;;14.90;99.90;;;;;;7399429;19;20113;-86
2022/09/24 07:50:39;;;;;;;15.05;2.75;;;14.80;99.90;;;;;;7396060;19;20014;-84
2022/09/24 07:53:09;;;;;;;12.98;2.40;;;14.80;99.90;;;;;;7401668;19;20352;-85
2022/09/24 07:55:39;;;;;;;18.20;2.88;;;14.70;99.90;;;;;;7399223;19;20010;-85
2022/09/24 07:58:15;;;;;;;18.15;2.72;;;14.70;99.90;;;;;;7402147;19;20010;-85
2022/09/24 08:00:43;;;;;;;12.07;2.40;;;14.60;99.90;;;;;;7395983;19;20018;-85
2022/09/24 08:03:09;;;;;;;14.20;2.70;;;14.60;99.90;;;;;;7401950;19;20060;-84
2022/09/24 08:05:41;;;;;;;13.00;2.67;;;14.60;99.90;;;;;;7395727;19;20390;-86
2022/09/24 08:08:07;;;;;;;8.40;2.47;;;14.60;99.90;;;;;;7398716;19;20014;-86
2022/09/24 08:10:33;;;;;;;7.07;2.55;;;14.60;99.90;;;;;;7396061;19;20387;-84
2022/09/24 08:13:02;;;;;;;8.98;2.63;;;14.70;99.90;;;;;;7395160;19;20010;-83
2022/09/24 08:15:28;;;;;;;6.43;2.85;;;14.70;99.90;;;;;;7394625;19;20010;-83
2022/09/24 08:18:03;;;;;;;7.47;2.95;;;14.80;99.90;;;;;;7396621;19;20014;-83
2022/09/24 08:20:30;;;;;;;6.05;1.98;;;14.70;99.90;;;;;;7396323;19;20021;-84
2022/09/24 08:23:05;;;;;;;6.80;2.13;;;14.80;99.90;;;;;;7399168;19;20021;-84
2022/09/24 08:25:34;;;;;;;7.55;2.05;;;14.80;99.90;;;;;;7398994;19;20948;-86
2022/09/24 08:28:07;;;;;;;7.50;2.00;;;14.90;99.90;;;;;;7396528;19;20078;-87
2022/09/24 08:30:34;;;;;;;11.27;2.60;;;14.90;99.90;;;;;;7393086;19;20095;-85
2022/09/24 08:33:00;;;;;;;10.45;1.90;;;15.00;99.90;;;;;;7399142;19;20390;-85
2022/09/24 08:35:29;;;;;;;13.30;2.10;;;15.00;99.90;;;;;;7399937;19;20018;-89
2022/09/24 08:38:00;;;;;;;6.88;2.10;;;15.00;99.90;;;;;;7401457;19;20019;-89
2022/09/24 08:40:33;;;;;;;11.23;2.17;;;15.10;99.90;;;;;;7400187;19;20095;-86
2022/09/24 08:43:26;;;;;;;17.30;2.55;;;15.20;99.90;;;;;;7400148;19;20042;-90
2022/09/24 08:48:46;;;;;;;16.85;3.00;;;15.20;99.90;;;;;;7397432;19;20022;-86
2022/09/24 08:51:16;;;;;;;17.02;4.88;;;15.30;99.90;;;;;;7402579;19;20010;-90
2022/09/24 08:53:42;;;;;;;18.67;3.10;;;15.30;99.90;;;;;;7398547;19;20081;-92
2022/09/24 08:56:32;;;;;;;13.68;2.47;;;15.40;99.90;;;;;;7402350;19;20125;-91
2022/09/24 08:59:22;;;;;;;12.63;2.72;;;15.50;99.90;;;;;;7399133;19;20492;-89
2022/09/24 09:02:05;;;;;;;11.25;3.38;;;15.60;99.90;;;;;;7397858;19;20015;-90
2022/09/24 09:05:00;;;;;;;17.25;3.90;;;15.60;99.90;;;;;;7400551;19;20073;-89
2022/09/24 09:08:09;;;;;;;15.25;3.45;;;15.70;99.90;;;;;;7399247;19;20045;-91
2022/09/24 09:11:03;;;;;;;11.68;3.00;;;15.70;99.90;;;;;;7394809;19;20015;-93
2022/09/24 09:13:59;;;;;;;13.23;3.55;;;15.60;99.90;;;;;;7402091;19;20035;-90
2022/09/24 09:16:48;;;;;;;11.23;2.25;;;15.60;99.90;;;;;;7404135;19;20333;-88
2022/09/24 09:19:16;;;;;;;12.30;2.70;;;15.60;99.90;;;;;;7396434;19;20020;-89
2022/09/24 09:21:59;;;;;;;9.77;2.15;;;15.70;99.90;;;;;;7401240;19;20014;-89
2022/09/24 09:24:48;;;;;;;24.48;6.18;;;15.80;99.90;;;;;;7398023;19;20019;-90
2022/09/24 09:27:17;;;;;;;14.32;3.45;;;15.70;99.90;;;;;;7401543;19;20035;-89
2022/09/24 09:29:48;;;;;;;9.57;2.70;;;15.70;99.90;;;;;;7399141;19;20011;-89
2022/09/24 09:32:27;;;;;;;;;;;15.80;99.90;;;;;;7401735;19;20090;-89
2022/09/24 09:35:35;;;;;;;11.00;3.47;;;15.80;99.90;;;;;;7399896;19;19922;-88
2022/09/24 09:38:22;;;;;;;12.15;4.13;;;15.80;99.90;;;;;;7400647;19;20039;-88
2022/09/24 09:40:51;;;;;;;14.90;4.32;;;15.90;99.90;;;;;;7395807;19;20018;-89
2022/09/24 09:43:19;;;;;;;10.40;3.83;;;15.70;99.90;;;;;;7400472;19;20550;-89
2022/09/24 09:46:24;;;;;;;12.98;4.15;;;15.70;99.90;;;;;;7397470;19;20050;-89
2022/09/24 09:49:00;;;;;;;10.88;3.65;;;15.70;99.90;;;;;;7398021;19;20035;-86
2022/09/24 09:51:36;;;;;;;13.88;3.67;;;15.70;99.90;;;;;;7399141;19;20035;-85
2022/09/24 09:54:03;;;;;;;13.00;2.70;;;15.60;99.90;;;;;;7397408;19;20031;-86
2022/09/24 09:56:35;;;;;;;12.70;2.80;;;15.70;99.90;;;;;;7395414;19;20035;-85
2022/09/24 09:59:11;;;;;;;11.13;2.63;;;15.70;99.90;;;;;;7394967;19;20021;-89
2022/09/24 10:01:40;;;;;;;15.32;3.05;;;15.90;99.90;;;;;;7396501;19;20014;-87
2022/09/24 10:04:33;;;;;;;12.05;2.80;;;16.10;99.90;;;;;;7397414;19;20022;-89
2022/09/24 10:07:12;;;;;;;;;;;16.00;99.90;;;;;;7395368;19;20377;-89
2022/09/24 10:09:41;;;;;;;11.40;2.67;;;15.90;99.90;;;;;;7395566;19;19923;-88
2022/09/24 10:12:15;;;;;;;12.70;2.80;;;15.90;99.90;;;;;;7395074;19;20010;-89
2022/09/24 10:14:42;;;;;;;11.27;2.60;;;15.90;99.90;;;;;;7398448;19;20014;-91
2022/09/24 10:17:17;;;;;;;10.80;2.83;;;15.80;99.90;;;;;;7395913;19;20018;-88
2022/09/24 10:19:49;;;;;;;10.40;2.38;;;15.80;99.90;;;;;;7394826;19;20086;-85
2022/09/24 10:22:22;;;;;;;8.82;2.05;;;15.60;99.90;;;;;;7396028;19;20074;-88
2022/09/24 10:24:49;;;;;;;6.55;1.98;;;15.60;99.90;;;;;;7396265;19;20022;-87
2022/09/24 10:27:42;;;;;;;6.97;1.75;;;15.50;99.90;;;;;;7400316;19;20055;-89
2022/09/24 10:30:34;;;;;;;6.77;1.57;;;15.50;99.90;;;;;;7395156;19;20011;-88
2022/09/24 10:33:02;;;;;;;4.43;1.17;;;15.40;99.90;;;;;;7392760;19;20322;-88
2022/09/24 10:35:34;;;;;;;6.63;1.35;;;15.40;99.90;;;;;;7404804;19;20013;-88
2022/09/24 10:38:12;;;;;;;5.15;1.00;;;15.30;99.90;;;;;;7403207;19;20012;-88
2022/09/24 10:40:39;;;;;;;4.43;0.80;;;15.50;99.90;;;;;;7405258;19;20022;-89
2022/09/24 10:43:20;;;;;;;;;;;15.40;99.90;;;;;;7409252;19;20007;-89
2022/09/24 10:46:20;;;;;;;3.83;0.77;;;15.30;99.90;;;;;;7402055;19;19910;-89
2022/09/24 10:49:07;;;;;;;5.70;1.23;;;15.30;99.90;;;;;;7403176;19;20027;-86
2022/09/24 10:51:53;;;;;;;6.75;1.08;;;15.30;99.90;;;;;;7402357;19;20006;-88
2022/09/24 10:54:32;;;;;;;4.82;0.80;;;15.40;99.90;;;;;;7403331;19;20386;-88
2022/09/24 10:57:02;;;;;;;4.15;1.08;;;15.40;99.90;;;;;;7406550;19;20010;-86
2022/09/24 11:00:09;;;;;;;7.55;1.17;;;15.40;99.90;;;;;;7401610;19;20010;-89
2022/09/24 11:02:54;;;;;;;8.13;1.67;;;15.40;99.90;;;;;;7403076;19;20011;-89
2022/09/24 11:05:22;;;;;;;5.43;1.02;;;15.40;99.90;;;;;;7406584;19;20078;-87
2022/09/24 11:08:00;;;;;;;7.60;1.10;;;15.30;99.90;;;;;;7402116;19;20018;-86
2022/09/24 11:10:50;;;;;;;7.70;1.45;;;15.30;99.90;;;;;;7400264;19;20018;-88
2022/09/24 11:13:30;;;;;;;7.60;1.52;;;15.30;99.90;;;;;;7402442;19;20026;-87
2022/09/24 11:16:41;;;;;;;9.18;1.30;;;15.30;99.90;;;;;;7405505;19;20015;-87
2022/09/24 11:19:16;;;;;;;10.23;1.40;;;15.40;99.90;;;;;;7400351;19;20018;-87
2022/09/24 11:22:11;;;;;;;8.13;1.40;;;15.40;99.90;;;;;;7404353;19;20035;-89
2022/09/24 11:25:07;;;;;;;8.57;1.45;;;15.30;99.90;;;;;;7405300;19;20042;-88
2022/09/24 11:27:45;;;;;;;10.30;1.63;;;15.20;99.90;;;;;;7406003;19;20353;-90
2022/09/24 11:30:20;;;;;;;8.70;1.77;;;15.20;99.90;;;;;;7407364;19;20044;-88
2022/09/24 11:33:25;;;;;;;5.32;1.42;;;15.10;99.90;;;;;;7405655;19;20058;-87
2022/09/24 11:36:21;;;;;;;8.57;1.38;;;15.20;99.90;;;;;;7404525;19;20096;-88
2022/09/24 11:39:08;;;;;;;8.00;1.67;;;15.10;99.90;;;;;;7403639;19;20081;-89
2022/09/24 11:42:06;;;;;;;12.05;2.05;;;15.10;99.90;;;;;;7406829;19;20018;-89
2022/09/24 11:45:06;;;;;;;10.75;1.98;;;15.10;99.90;;;;;;7403511;19;20029;-87
2022/09/24 11:48:01;;;;;;;6.15;2.08;;;15.20;99.90;;;;;;7405209;19;20010;-87
2022/09/24 11:50:45;;;;;;;9.35;2.17;;;15.30;99.90;;;;;;7406233;19;20016;-88
2022/09/24 11:53:20;;;;;;;11.30;2.30;;;15.30;99.90;;;;;;7406963;19;20006;-86
2022/09/24 11:56:13;;;;;;;8.07;2.25;;;15.40;99.90;;;;;;7404655;19;20025;-90
2022/09/24 11:58:51;;;;;;;5.53;1.80;;;15.50;99.90;;;;;;7405755;19;20022;-86
2022/09/24 12:01:23;;;;;;;5.93;1.98;;;15.50;99.90;;;;;;7407074;19;20014;-89
2022/09/24 12:03:58;;;;;;;8.32;2.17;;;15.70;99.90;;;;;;7402303;19;20030;-89
2022/09/24 12:06:30;;;;;;;7.97;1.80;;;15.70;99.90;;;;;;7406580;19;20045;-88
2022/09/24 12:09:21;;;;;;;9.45;2.00;;;15.70;99.90;;;;;;7400026;19;20491;-86
2022/09/24 12:11:53;;;;;;;8.75;2.40;;;15.60;99.90;;;;;;7399411;19;20023;-88
2022/09/24 12:14:24;;;;;;;9.10;2.40;;;15.70;99.90;;;;;;7401911;19;20025;-87
2022/09/24 12:17:00;;;;;;;11.05;2.95;;;15.70;99.90;;;;;;7402562;19;20027;-89
2022/09/24 12:19:35;;;;;;;7.72;2.45;;;15.60;99.90;;;;;;7397799;19;20070;-90
2022/09/24 12:22:04;;;;;;;9.63;2.42;;;15.60;99.90;;;;;;7402576;19;20021;-89
2022/09/24 12:24:52;;;;;;;9.80;2.70;;;15.60;99.90;;;;;;7404771;19;20123;-87
2022/09/24 12:27:24;;;;;;;6.63;2.70;;;15.60;99.90;;;;;;7407688;19;20061;-90
2022/09/24 12:33:34;;;;;;;9.15;3.60;;;15.50;99.90;;;;;;7410291;19;20022;-92
2022/09/24 12:36:05;;;;;;;11.82;3.90;;;15.30;99.90;;;;;;7403369;19;20645;-91
2022/09/24 12:38:45;;;;;;;9.65;4.47;;;15.30;99.90;;;;;;7406239;19;20018;-91
2022/09/24 12:41:34;;;;;;;13.00;4.53;;;15.30;99.90;;;;;;7411005;19;20022;-90
2022/09/24 12:44:06;;;;;;;14.40;4.10;;;15.20;99.90;;;;;;7410661;19;20014;-90
2022/09/24 12:46:52;;;;;;;12.45;4.22;;;15.20;99.90;;;;;;7406613;19;20483;-89
2022/09/24 12:49:18;;;;;;;12.40;4.88;;;15.10;99.90;;;;;;7407116;19;20022;-93
2022/09/24 12:51:45;;;;;;;11.38;5.00;;;15.10;99.90;;;;;;7404490;19;20018;-88
2022/09/24 12:54:29;;;;;;;11.50;4.32;;;15.10;99.90;;;;;;7409119;19;20011;-92
2022/09/24 12:57:22;;;;;;;11.45;4.55;;;15.10;99.90;;;;;;7408595;19;20039;-92
2022/09/24 13:00:03;;;;;;;11.68;4.80;;;15.10;99.90;;;;;;7406695;19;20010;-91
2022/09/24 13:02:51;;;;;;;14.57;5.25;;;15.10;99.90;;;;;;7407122;19;20053;-93
2022/09/24 13:05:21;;;;;;;13.43;5.70;;;15.20;99.90;;;;;;7412083;19;20510;-93
2022/09/24 13:08:00;;;;;;;12.77;5.35;;;15.20;99.90;;;;;;7408085;19;20043;-93
2022/09/24 13:10:32;;;;;;;11.38;5.43;;;15.20;99.90;;;;;;7411093;19;20318;-93
2022/09/24 13:13:03;;;;;;;15.80;5.88;;;15.20;99.90;;;;;;7408328;19;20316;-93